createdAt,value
2018-08-30T00:02:16.289Z,99.90
2018-08-30T00:04:44.973Z,99.90
2018-08-30T00:07:14.430Z,99.90
2018-08-30T00:09:42.784Z,99.90
2018-08-30T00:12:11.344Z,99.90
2018-08-30T00:14:39.782Z,99.90
2018-08-30T00:17:08.170Z,99.90
2018-08-30T00:19:36.710Z,99.90
2018-08-30T00:22:05.304Z,99.80
2018-08-30T00:24:33.916Z,99.00
2018-08-30T00:27:02.462Z,99.10
2018-08-30T00:29:30.896Z,98.60
2018-08-30T00:31:59.547Z,98.30
2018-08-30T00:34:28.277Z,98.20
2018-08-30T00:36:56.883Z,97.90
2018-08-30T00:39:25.787Z,97.60
2018-08-30T00:41:54.320Z,97.70
2018-08-30T00:44:22.799Z,97.60
2018-08-30T00:46:51.313Z,97.70
2018-08-30T00:49:19.740Z,97.60
2018-08-30T00:51:48.258Z,97.60
2018-08-30T00:54:16.738Z,97.50
2018-08-30T00:56:45.464Z,97.10
2018-08-30T00:59:14.309Z,97.30
2018-08-30T01:01:42.965Z,97.50
2018-08-30T01:04:11.958Z,97.40
2018-08-30T01:06:40.334Z,97.50
2018-08-30T01:09:08.783Z,97.50
2018-08-30T01:11:37.436Z,97.60
2018-08-30T01:14:06.262Z,96.90
2018-08-30T01:16:34.999Z,96.50
2018-08-30T01:19:03.351Z,96.20
2018-08-30T01:21:31.868Z,96.00
2018-08-30T01:24:00.306Z,96.10
2018-08-30T01:26:28.853Z,96.00
2018-08-30T01:28:57.380Z,95.20
2018-08-30T01:31:25.957Z,95.10
2018-08-30T01:33:54.314Z,95.10
2018-08-30T01:36:22.754Z,95.10
2018-08-30T01:38:51.284Z,95.20
2018-08-30T01:41:19.718Z,95.20
2018-08-30T01:43:48.211Z,95.10
2018-08-30T01:46:16.941Z,95.20
2018-08-30T01:48:45.484Z,94.90
2018-08-30T01:51:15.678Z,94.70
2018-08-30T01:53:44.175Z,94.90
2018-08-30T01:56:12.778Z,94.70
2018-08-30T01:58:41.367Z,94.60
2018-08-30T02:01:09.735Z,94.40
2018-08-30T02:03:38.257Z,94.70
2018-08-30T02:06:06.853Z,94.60
2018-08-30T02:08:35.265Z,94.60
2018-08-30T02:11:03.744Z,94.80
2018-08-30T02:13:32.121Z,94.70
2018-08-30T02:16:00.662Z,94.40
2018-08-30T02:18:29.205Z,94.30
2018-08-30T02:20:57.815Z,94.20
2018-08-30T02:23:26.443Z,94.30
2018-08-30T02:25:55.014Z,94.30
2018-08-30T02:28:23.569Z,94.20
2018-08-30T02:30:51.974Z,94.10
2018-08-30T02:33:20.640Z,94.10
2018-08-30T02:35:49.344Z,93.80
2018-08-30T02:38:17.917Z,93.80
2018-08-30T02:40:46.358Z,93.90
2018-08-30T02:43:18.123Z,94.00
2018-08-30T02:45:46.704Z,94.10
2018-08-30T02:48:15.882Z,94.10
2018-08-30T02:50:44.498Z,94.10
2018-08-30T02:53:13.891Z,94.20
2018-08-30T02:55:42.304Z,94.10
2018-08-30T02:58:10.994Z,94.10
2018-08-30T03:00:39.477Z,94.20
2018-08-30T03:03:08.132Z,94.00
2018-08-30T03:05:37.122Z,93.90
2018-08-30T03:08:06.045Z,93.90
2018-08-30T03:10:34.659Z,93.90
2018-08-30T03:13:03.090Z,94.00
2018-08-30T03:15:31.480Z,94.00
2018-08-30T03:17:59.826Z,93.90
2018-08-30T03:20:28.384Z,94.00
2018-08-30T03:22:57.108Z,94.00
2018-08-30T03:25:26.623Z,94.00
2018-08-30T03:27:55.050Z,93.80
2018-08-30T03:30:25.696Z,93.80
2018-08-30T03:32:56.823Z,93.80
2018-08-30T03:35:26.334Z,94.10
2018-08-30T03:37:54.948Z,93.90
2018-08-30T03:40:23.518Z,94.20
2018-08-30T03:42:51.859Z,93.90
2018-08-30T03:45:20.380Z,93.90
2018-08-30T03:47:51.570Z,93.90
2018-08-30T03:50:20.495Z,93.90
2018-08-30T03:52:49.014Z,93.80
2018-08-30T03:55:19.350Z,93.70
2018-08-30T03:57:48.135Z,93.80
2018-08-30T04:00:17.270Z,93.80
2018-08-30T04:02:45.862Z,93.80
2018-08-30T04:05:16.082Z,93.80
2018-08-30T04:07:44.614Z,93.80
2018-08-30T04:10:13.515Z,93.60
2018-08-30T04:12:42.085Z,93.60
2018-08-30T04:15:12.199Z,93.60
2018-08-30T04:17:40.649Z,93.60
2018-08-30T04:20:09.094Z,93.50
2018-08-30T04:22:37.634Z,93.60
2018-08-30T04:25:06.282Z,93.70
2018-08-30T04:27:34.985Z,93.70
2018-08-30T04:30:03.633Z,93.80
2018-08-30T04:32:32.512Z,93.80
2018-08-30T04:35:01.172Z,93.90
2018-08-30T04:37:29.543Z,93.90
2018-08-30T04:39:58.166Z,94.20
2018-08-30T04:42:26.878Z,94.00
2018-08-30T04:44:55.470Z,94.10
2018-08-30T04:47:24.361Z,93.90
2018-08-30T04:49:52.879Z,94.10
2018-08-30T04:52:21.386Z,94.10
2018-08-30T04:54:49.760Z,94.10
2018-08-30T04:57:18.241Z,94.20
2018-08-30T04:59:46.686Z,94.10
2018-08-30T05:02:17.950Z,94.10
2018-08-30T05:04:46.339Z,94.10
2018-08-30T05:07:14.799Z,94.10
2018-08-30T05:09:43.314Z,93.90
2018-08-30T05:12:11.697Z,94.00
2018-08-30T05:14:40.030Z,94.00
2018-08-30T05:17:08.974Z,94.00
2018-08-30T05:19:37.616Z,93.80
2018-08-30T05:22:06.286Z,93.70
2018-08-30T05:24:34.986Z,93.50
2018-08-30T05:27:03.504Z,93.50
2018-08-30T05:29:31.951Z,93.40
2018-08-30T05:32:00.309Z,93.40
2018-08-30T05:34:29.683Z,93.50
2018-08-30T05:36:58.153Z,93.40
2018-08-30T05:39:26.800Z,93.30
2018-08-30T05:41:55.784Z,93.40
2018-08-30T05:44:24.119Z,93.10
2018-08-30T05:46:52.526Z,93.10
2018-08-30T05:49:20.898Z,92.90
2018-08-30T05:51:49.464Z,92.70
2018-08-30T05:54:17.947Z,92.40
2018-08-30T05:56:46.691Z,92.50
2018-08-30T05:59:15.465Z,91.90
2018-08-30T06:01:44.019Z,91.70
2018-08-30T06:04:12.467Z,91.00
2018-08-30T06:06:40.866Z,90.70
2018-08-30T06:09:09.652Z,90.50
2018-08-30T06:11:38.008Z,90.50
2018-08-30T06:14:06.644Z,90.30
2018-08-30T06:16:35.000Z,90.00
2018-08-30T06:19:03.701Z,90.00
2018-08-30T06:21:32.062Z,89.10
2018-08-30T06:24:00.946Z,89.40
2018-08-30T06:26:29.391Z,89.40
2018-08-30T06:28:58.503Z,89.90
2018-08-30T06:31:26.953Z,89.50
2018-08-30T06:33:55.463Z,89.60
2018-08-30T06:36:23.908Z,89.90
2018-08-30T06:38:52.512Z,89.80
2018-08-30T06:41:20.923Z,89.30
2018-08-30T06:43:49.392Z,88.80
2018-08-30T06:46:17.943Z,88.40
2018-08-30T06:48:46.423Z,87.50
2018-08-30T06:51:15.050Z,87.60
2018-08-30T06:53:43.536Z,87.40
2018-08-30T06:56:12.063Z,87.10
2018-08-30T06:58:40.478Z,87.00
2018-08-30T07:01:09.513Z,87.20
2018-08-30T07:03:37.929Z,87.40
2018-08-30T07:06:06.595Z,87.00
2018-08-30T07:08:36.350Z,87.10
2018-08-30T07:11:04.978Z,86.30
2018-08-30T07:13:33.422Z,86.20
2018-08-30T07:16:01.906Z,85.30
2018-08-30T07:18:30.313Z,84.90
2018-08-30T07:20:58.859Z,84.10
2018-08-30T07:23:27.437Z,84.60
2018-08-30T07:25:56.284Z,83.70
2018-08-30T07:28:25.541Z,84.00
2018-08-30T07:30:53.971Z,84.80
2018-08-30T07:33:22.610Z,85.60
2018-08-30T07:35:51.378Z,86.30
2018-08-30T07:38:19.915Z,86.80
2018-08-30T07:40:48.318Z,87.30
2018-08-30T07:43:16.745Z,87.20
2018-08-30T07:45:45.881Z,87.00
2018-08-30T07:48:14.399Z,86.20
2018-08-30T07:50:42.906Z,85.20
2018-08-30T07:53:11.771Z,85.50
2018-08-30T07:55:40.171Z,84.90
2018-08-30T07:58:09.294Z,85.10
2018-08-30T08:00:37.874Z,84.90
2018-08-30T08:03:06.488Z,84.80
2018-08-30T08:05:35.143Z,85.20
2018-08-30T08:08:03.642Z,85.10
2018-08-30T08:10:32.032Z,85.50
2018-08-30T08:13:00.797Z,86.20
2018-08-30T08:15:29.438Z,85.50
2018-08-30T08:17:57.933Z,85.80
2018-08-30T08:20:26.389Z,86.00
2018-08-30T08:22:54.782Z,86.20
2018-08-30T08:25:23.427Z,85.60
2018-08-30T08:27:51.814Z,85.30
2018-08-30T08:30:20.245Z,85.40
2018-08-30T08:32:48.578Z,84.10
2018-08-30T08:35:16.970Z,82.10
2018-08-30T08:37:45.400Z,80.50
2018-08-30T08:40:15.536Z,79.20
2018-08-30T08:42:44.025Z,76.20
2018-08-30T08:45:13.198Z,71.10
2018-08-30T08:47:42.501Z,68.20
2018-08-30T08:50:12.207Z,67.50
2018-08-30T08:52:40.562Z,67.80
2018-08-30T08:55:10.544Z,68.40
2018-08-30T08:57:39.463Z,68.80
2018-08-30T09:00:08.216Z,69.80
2018-08-30T09:02:36.838Z,70.90
2018-08-30T09:05:05.775Z,72.30
2018-08-30T09:07:34.113Z,72.80
2018-08-30T09:10:02.472Z,72.70
2018-08-30T09:12:30.810Z,73.20
2018-08-30T09:14:59.200Z,73.90
2018-08-30T09:17:27.605Z,74.00
2018-08-30T09:19:55.950Z,75.00
2018-08-30T09:22:24.321Z,75.70
2018-08-30T09:24:52.695Z,76.80
2018-08-30T09:27:21.036Z,77.70
2018-08-30T09:29:49.470Z,78.40
2018-08-30T09:32:18.547Z,78.80
2018-08-30T09:34:47.146Z,79.50
2018-08-30T09:37:16.787Z,79.90
2018-08-30T09:39:47.227Z,79.60
2018-08-30T09:42:16.067Z,78.70
2018-08-30T09:44:44.454Z,77.20
2018-08-30T09:47:12.864Z,75.80
2018-08-30T09:49:41.236Z,73.60
2018-08-30T09:52:09.921Z,72.20
2018-08-30T09:54:38.486Z,72.50
2018-08-30T09:57:07.774Z,72.90
2018-08-30T09:59:36.795Z,72.90
2018-08-30T10:02:11.619Z,71.70
2018-08-30T10:04:41.345Z,70.70
2018-08-30T10:07:13.352Z,69.90
2018-08-30T10:09:43.572Z,69.10
2018-08-30T10:12:14.636Z,69.30
2018-08-30T10:14:43.083Z,68.20
2018-08-30T10:17:12.460Z,67.70
2018-08-30T10:19:40.845Z,66.70
2018-08-30T10:22:09.450Z,66.90
2018-08-30T10:24:37.966Z,67.00
2018-08-30T10:27:06.473Z,66.50
2018-08-30T10:29:34.988Z,65.00
2018-08-30T10:32:03.457Z,65.20
2018-08-30T10:34:31.807Z,64.40
2018-08-30T10:37:00.218Z,64.60
2018-08-30T10:39:28.604Z,65.30
2018-08-30T10:41:57.042Z,66.20
2018-08-30T10:44:25.466Z,66.10
2018-08-30T10:46:53.808Z,67.30
2018-08-30T10:49:22.149Z,69.00
2018-08-30T10:51:50.495Z,70.20
2018-08-30T10:54:18.875Z,71.00
2018-08-30T10:56:47.420Z,70.90
2018-08-30T10:59:16.091Z,70.20
2018-08-30T11:01:44.589Z,71.00
2018-08-30T11:04:13.131Z,71.30
2018-08-30T11:06:41.582Z,71.20
2018-08-30T11:09:11.011Z,71.10
2018-08-30T11:11:39.388Z,70.30
2018-08-30T11:14:08.575Z,69.50
2018-08-30T11:16:37.074Z,69.30
2018-08-30T11:19:06.430Z,68.90
2018-08-30T11:21:34.989Z,68.50
2018-08-30T11:24:03.376Z,69.00
2018-08-30T11:26:31.851Z,67.60
2018-08-30T11:29:00.247Z,67.80
2018-08-30T11:31:28.862Z,68.00
2018-08-30T11:33:57.619Z,67.30
2018-08-30T11:36:26.852Z,67.00
2018-08-30T11:38:56.747Z,66.60
2018-08-30T11:41:25.913Z,65.30
2018-08-30T11:43:54.690Z,64.10
2018-08-30T11:46:23.211Z,63.00
2018-08-30T11:48:51.590Z,61.90
2018-08-30T11:51:21.788Z,61.60
2018-08-30T11:53:50.554Z,62.10
2018-08-30T11:56:19.301Z,62.50
2018-08-30T11:58:47.847Z,63.00
2018-08-30T12:01:16.357Z,63.80
2018-08-30T12:03:46.295Z,64.10
2018-08-30T12:06:14.688Z,63.60
2018-08-30T12:08:43.481Z,64.70
2018-08-30T12:11:11.965Z,63.60
2018-08-30T12:13:40.262Z,63.20
2018-08-30T12:16:09.107Z,62.90
2018-08-30T12:18:37.640Z,63.20
2018-08-30T12:21:06.382Z,60.60
2018-08-30T12:23:34.955Z,60.50
2018-08-30T12:26:03.366Z,58.10
2018-08-30T12:28:31.886Z,58.60
2018-08-30T12:31:01.146Z,58.90
2018-08-30T12:33:29.543Z,58.70
2018-08-30T12:35:58.266Z,59.20
2018-08-30T12:38:26.714Z,58.60
2018-08-30T12:40:55.093Z,58.00
2018-08-30T12:43:23.504Z,57.90
2018-08-30T12:45:51.864Z,57.40
2018-08-30T12:48:20.221Z,57.60
2018-08-30T12:50:48.718Z,57.80
2018-08-30T12:53:17.670Z,58.10
2018-08-30T12:55:46.101Z,58.10
2018-08-30T12:58:15.466Z,58.30
2018-08-30T13:00:43.657Z,59.00
2018-08-30T13:03:12.074Z,59.90
2018-08-30T13:05:40.630Z,60.80
2018-08-30T13:08:09.864Z,61.30
2018-08-30T13:10:38.297Z,63.00
2018-08-30T13:13:07.821Z,60.90
2018-08-30T13:15:36.404Z,60.80
2018-08-30T13:18:04.817Z,60.40
2018-08-30T13:20:33.349Z,60.30
2018-08-30T13:23:01.898Z,59.10
2018-08-30T13:25:30.077Z,59.30
2018-08-30T13:27:58.562Z,58.10
2018-08-30T13:30:27.438Z,59.00
2018-08-30T13:32:56.060Z,58.60
2018-08-30T13:35:24.404Z,58.00
2018-08-30T13:37:52.913Z,57.50
2018-08-30T13:40:21.379Z,56.90
2018-08-30T13:42:49.529Z,56.20
2018-08-30T13:45:18.042Z,55.40
2018-08-30T13:47:46.318Z,55.90
2018-08-30T13:50:14.734Z,55.70
2018-08-30T13:52:44.043Z,56.00
2018-08-30T13:55:12.440Z,55.70
2018-08-30T13:57:41.100Z,55.40
2018-08-30T14:00:10.587Z,55.10
2018-08-30T14:02:38.710Z,53.50
2018-08-30T14:05:08.243Z,53.90
2018-08-30T14:07:36.587Z,54.30
2018-08-30T14:10:05.354Z,55.80
2018-08-30T14:12:33.669Z,56.20
2018-08-30T14:15:02.365Z,55.00
2018-08-30T14:17:30.260Z,54.50
2018-08-30T14:19:58.727Z,55.10
2018-08-30T14:22:27.227Z,55.40
2018-08-30T14:24:55.847Z,54.70
2018-08-30T14:27:24.571Z,55.70
2018-08-30T14:29:52.939Z,55.90
2018-08-30T14:32:21.354Z,56.40
2018-08-30T14:34:49.869Z,56.60
2018-08-30T14:37:18.291Z,54.90
2018-08-30T14:39:47.127Z,55.30
2018-08-30T14:42:15.601Z,55.10
2018-08-30T14:44:44.104Z,56.20
2018-08-30T14:47:12.751Z,56.90
2018-08-30T14:49:41.141Z,57.80
2018-08-30T14:52:10.220Z,57.80
2018-08-30T14:54:39.787Z,56.90
2018-08-30T14:57:08.681Z,56.50
2018-08-30T14:59:37.387Z,56.60
2018-08-30T15:02:05.929Z,56.10
2018-08-30T15:04:34.234Z,56.20
2018-08-30T15:07:02.580Z,55.90
2018-08-30T15:09:30.982Z,55.70
2018-08-30T15:11:59.358Z,55.20
2018-08-30T15:14:27.915Z,55.90
2018-08-30T15:16:56.383Z,55.40
2018-08-30T15:19:25.009Z,55.00
2018-08-30T15:21:53.410Z,55.70
2018-08-30T15:24:21.930Z,56.00
2018-08-30T15:26:50.371Z,56.40
2018-08-30T15:29:19.023Z,56.70
2018-08-30T15:31:47.425Z,57.60
2018-08-30T15:34:15.907Z,58.10
2018-08-30T15:36:44.371Z,58.00
2018-08-30T15:39:12.787Z,57.60
2018-08-30T15:41:41.183Z,57.90
2018-08-30T15:44:09.665Z,57.70
2018-08-30T15:46:38.350Z,58.10
2018-08-30T15:49:07.550Z,58.20
2018-08-30T15:51:35.895Z,58.40
2018-08-30T15:54:04.361Z,58.50
2018-08-30T15:56:32.728Z,58.60
2018-08-30T15:59:01.155Z,58.60
2018-08-30T16:01:29.470Z,59.40
2018-08-30T16:03:57.841Z,60.90
2018-08-30T16:06:26.394Z,59.40
2018-08-30T16:08:55.008Z,58.80
2018-08-30T16:11:23.411Z,59.30
2018-08-30T16:13:51.774Z,59.20
2018-08-30T16:16:20.312Z,59.80
2018-08-30T16:18:49.184Z,59.60
2018-08-30T16:21:18.103Z,59.20
2018-08-30T16:23:46.708Z,58.90
2018-08-30T16:26:15.176Z,59.00
2018-08-30T16:28:43.528Z,58.80
2018-08-30T16:31:11.940Z,58.70
2018-08-30T16:33:40.696Z,59.00
2018-08-30T16:36:09.361Z,58.80
2018-08-30T16:38:38.399Z,58.90
2018-08-30T16:41:07.253Z,59.10
2018-08-30T16:43:35.920Z,59.40
2018-08-30T16:46:04.312Z,59.10
2018-08-30T16:48:32.873Z,58.90
2018-08-30T16:51:01.240Z,58.80
2018-08-30T16:53:29.640Z,58.50
2018-08-30T16:55:58.035Z,59.00
2018-08-30T16:58:26.706Z,58.90
2018-08-30T17:00:55.472Z,59.20
2018-08-30T17:03:23.839Z,59.80
2018-08-30T17:05:52.238Z,58.10
2018-08-30T17:08:20.617Z,58.60
2018-08-30T17:10:49.074Z,58.60
2018-08-30T17:13:17.670Z,58.80
2018-08-30T17:15:46.364Z,59.10
2018-08-30T17:18:14.740Z,59.10
2018-08-30T17:20:47.548Z,59.70
2018-08-30T17:23:16.030Z,59.80
2018-08-30T17:25:44.773Z,59.70
2018-08-30T17:28:13.592Z,60.00
2018-08-30T17:30:42.213Z,60.50
2018-08-30T17:33:11.093Z,59.90
2018-08-30T17:35:40.098Z,59.90
2018-08-30T17:38:09.234Z,59.10
2018-08-30T17:40:37.813Z,59.10
2018-08-30T17:43:06.806Z,57.50
2018-08-30T17:45:35.765Z,57.80
2018-08-30T17:48:03.793Z,57.90
2018-08-30T17:50:32.513Z,57.60
2018-08-30T17:53:00.750Z,57.80
2018-08-30T17:55:29.196Z,58.20
2018-08-30T17:57:57.664Z,57.40
2018-08-30T18:00:26.226Z,57.80
2018-08-30T18:02:54.570Z,58.10
2018-08-30T18:05:22.978Z,58.30
2018-08-30T18:07:51.370Z,58.30
2018-08-30T18:10:19.791Z,58.40
2018-08-30T18:12:48.491Z,58.80
2018-08-30T18:15:17.057Z,59.20
2018-08-30T18:17:46.318Z,58.50
2018-08-30T18:20:14.952Z,58.20
2018-08-30T18:22:43.323Z,58.10
2018-08-30T18:25:12.402Z,58.10
2018-08-30T18:27:40.710Z,58.10
2018-08-30T18:30:11.044Z,58.30
2018-08-30T18:32:39.430Z,58.10
2018-08-30T18:35:10.424Z,58.20
2018-08-30T18:37:39.262Z,58.30
2018-08-30T18:40:09.877Z,58.60
2018-08-30T18:42:38.621Z,58.20
2018-08-30T18:45:08.035Z,59.00
2018-08-30T18:47:37.127Z,58.30
2018-08-30T18:50:05.804Z,58.40
2018-08-30T18:52:34.606Z,58.90
2018-08-30T18:55:03.053Z,58.40
2018-08-30T18:57:31.422Z,58.40
2018-08-30T18:59:59.798Z,57.80
2018-08-30T19:02:28.154Z,58.20
2018-08-30T19:04:56.729Z,58.40
2018-08-30T19:09:55.896Z,58.20
2018-08-30T19:12:27.167Z,58.60
2018-08-30T19:14:55.781Z,58.50
2018-08-30T19:17:29.439Z,58.60
2018-08-30T19:19:58.204Z,58.70
2018-08-30T19:22:27.333Z,58.80
2018-08-30T19:25:01.030Z,59.10
2018-08-30T19:27:29.478Z,59.20
2018-08-30T19:30:03.394Z,59.90
2018-08-30T19:32:31.825Z,59.80
2018-08-30T19:35:05.791Z,59.60
2018-08-30T19:37:34.148Z,59.70
2018-08-30T19:40:02.509Z,59.70
2018-08-30T19:42:31.038Z,59.50
2018-08-30T19:44:59.391Z,59.70
2018-08-30T19:47:29.624Z,59.70
2018-08-30T19:49:58.301Z,59.60
2018-08-30T19:52:26.991Z,59.30
2018-08-30T19:54:55.624Z,59.30
2018-08-30T19:57:23.928Z,59.80
2018-08-30T19:59:52.432Z,59.50
2018-08-30T20:02:21.440Z,59.70
2018-08-30T20:04:49.793Z,59.80
2018-08-30T20:07:18.170Z,60.00
2018-08-30T20:09:46.780Z,60.50
2018-08-30T20:12:15.815Z,60.40
2018-08-30T20:14:44.342Z,59.90
2018-08-30T20:17:13.902Z,61.30
2018-08-30T20:19:42.751Z,60.40
2018-08-30T20:22:13.748Z,60.60
2018-08-30T20:24:43.538Z,60.20
2018-08-30T20:27:12.069Z,60.20
2018-08-30T20:29:40.407Z,60.70
2018-08-30T20:32:08.747Z,60.30
2018-08-30T20:34:37.358Z,60.70
2018-08-30T20:37:05.870Z,60.80
2018-08-30T20:39:34.258Z,60.90
2018-08-30T20:42:02.685Z,61.10
2018-08-30T20:44:31.014Z,61.10
2018-08-30T20:46:59.674Z,61.40
2018-08-30T20:49:28.206Z,61.80
2018-08-30T20:51:56.754Z,61.70
2018-08-30T20:54:25.547Z,61.50
2018-08-30T20:56:54.022Z,61.80
2018-08-30T20:59:22.606Z,61.60
2018-08-30T21:01:51.068Z,62.00
2018-08-30T21:04:19.668Z,62.30
2018-08-30T21:06:48.426Z,62.40
2018-08-30T21:09:17.010Z,62.80
2018-08-30T21:11:45.867Z,63.00
2018-08-30T21:14:14.984Z,63.20
2018-08-30T21:16:43.354Z,63.20
2018-08-30T21:19:12.724Z,63.00
2018-08-30T21:21:41.125Z,63.30
2018-08-30T21:24:09.577Z,62.90
2018-08-30T21:26:38.295Z,63.10
2018-08-30T21:29:06.845Z,63.30
2018-08-30T21:31:35.261Z,63.40
2018-08-30T21:34:03.797Z,63.20
2018-08-30T21:36:32.153Z,63.20
2018-08-30T21:39:00.583Z,63.40
2018-08-30T21:41:28.956Z,63.80
2018-08-30T21:43:57.558Z,64.20
2018-08-30T21:46:26.517Z,64.20
2018-08-30T21:48:54.992Z,64.60
2018-08-30T21:51:23.450Z,64.80
2018-08-30T21:53:52.027Z,65.10
2018-08-30T21:56:20.445Z,65.10
2018-08-30T21:58:48.819Z,65.40
2018-08-30T22:01:17.378Z,65.40
2018-08-30T22:03:45.900Z,65.40
2018-08-30T22:06:14.992Z,65.80
2018-08-30T22:08:43.776Z,66.20
2018-08-30T22:11:12.975Z,65.60
2018-08-30T22:13:41.632Z,65.40
2018-08-30T22:16:10.385Z,65.70
2018-08-30T22:18:38.790Z,65.50
2018-08-30T22:21:07.413Z,65.60
2018-08-30T22:23:35.887Z,65.40
2018-08-30T22:26:04.289Z,65.50
2018-08-30T22:28:32.684Z,65.50
2018-08-30T22:31:01.025Z,65.40
2018-08-30T22:33:29.467Z,65.30
2018-08-30T22:35:58.227Z,65.50
2018-08-30T22:38:26.809Z,65.60
2018-08-30T22:40:55.739Z,65.60
2018-08-30T22:43:23.968Z,65.70
2018-08-30T22:45:52.318Z,65.90
2018-08-30T22:48:20.830Z,66.10
2018-08-30T22:50:49.182Z,66.50
2018-08-30T22:53:17.582Z,66.70
2018-08-30T22:55:45.938Z,66.70
2018-08-30T22:58:15.011Z,67.60
2018-08-30T23:00:43.574Z,67.00
2018-08-30T23:03:11.925Z,67.40
2018-08-30T23:05:40.293Z,67.80
2018-08-30T23:08:08.641Z,67.90
2018-08-30T23:10:37.059Z,68.00
2018-08-30T23:13:06.761Z,68.30
2018-08-30T23:15:35.074Z,68.40
2018-08-30T23:18:03.442Z,68.50
2018-08-30T23:20:31.898Z,68.70
2018-08-30T23:23:00.486Z,68.70
2018-08-30T23:25:28.898Z,69.00
2018-08-30T23:27:57.711Z,69.00
2018-08-30T23:30:26.369Z,69.00
2018-08-30T23:37:47.565Z,69.50
2018-08-30T23:40:17.648Z,70.10
2018-08-30T23:42:46.087Z,70.50
2018-08-30T23:45:16.166Z,71.00
2018-08-30T23:47:44.499Z,71.90
2018-08-30T23:50:14.472Z,71.50
2018-08-30T23:52:42.859Z,71.70
2018-08-30T23:55:15.447Z,72.30
2018-08-30T23:57:55.438Z,73.00
